Columbia (COU/KCOU)

Map

Destinations

Information

Location
Columbia, Missouri
Local Time
18:44 / 6:44 pm
GMT Time
23:44 / 11:44 pm
Gates
Unassigned
No FAA reported delays
METAR KCOU 232254Z 13004KT 10SM CLR 31/19 A2998 RMK AO2 SLP143 T03110189
TAF KCOU 231725Z 2318/2418 VRB05KT P6SM SCT060